20:42
Airports
History
Links
Donate
Help keep this website running!
PayPal
Bitcoin
Information on this page is community maintained and may be outdated or inaccurate and is intended for reference only or PC simulator navigating!
Always use approved charts for navigating.
URMM
MINERALNYYE VODY
MINERALNYYE VODY (URMM)
Mineralnye Vody, Stavropol Krai, Russian Federation (357204)
(C)
Lat/Lng:44° 13' 30.26" N / 43° 4' 54.81" E
44.225073 / 43.081891
Elevation:1054'ft 321mMSL
ID / ICAO:URMM
Runways:1
Longest:(12-30) 3,894.6m 12,778ft Concrete
Controlled:Yes
Distance To
Airport ID:
Airport Radio Frequencies
ATIS: 127.4
Ground: 121.9
Tower: 128
Approach: 119.3
Nearby VORs <50NM
Nearby NDBs
METARUpdated 04-27-17 20:30 GMT
Altimeter: 30.18
Visibility: 6.2 statute miles
Wind: 3.9 knots (090°)
Temp: 7°c 45°f
Humidity: 75.6%

METAR: URMM 272030Z 09002MPS 9999 NSC 07/03 Q1022 R12/000070 NOSIG RMK QFE738/0984

(Powered by phpweather)
Runway 12 / 30
Dimensions:3894.6 x 60.1m 12778' x 197'ft
Surface:Concrete
Edge Lights:High intensity
Runway 12 [A]Runway 30 [B]
Heading:122°TH 302°TH
Lat:
Lng:
44° 14' 3.9"N
43° 3' 40.52"E
44° 12' 56.62"N
43° 6' 9.09"E
ALS:MALSMALS
Google Map
Nearby Airports
(C) NALCHIK 56.4 NM
URMN SSE 150°
(C) SHPAKOVSKOYE 77.5 NM
URMT NW 322°
(C) BESLAN 103.7 NM
URMO SE 132°
(U) SUKHUMI DRANDA 136.0 NM
UG29 SW 226°
(U) KUTAISI WEST 138.5 NM
UG26 S 189°
(C) KOPITNARI 144.7 NM
UGKO SSW 192°
(U) GUDAUTA 147.1 NM
UG23 WSW 238°
VFR Chart
Flight Planning at SkyVector.com